sensor_id;sensor_type;location;lat;lon;timestamp;P1;durP1;ratioP1;P2;durP2;ratioP2
56911;SDS011;42800;53.928;27.662;2024-03-02T00:00:26;31.23;;;14.02;;
56911;SDS011;42800;53.928;27.662;2024-03-02T00:02:52;27.02;;;13.05;;
56911;SDS011;42800;53.928;27.662;2024-03-02T00:05:19;28.35;;;12.60;;
56911;SDS011;42800;53.928;27.662;2024-03-02T00:07:48;27.30;;;12.02;;
56911;SDS011;42800;53.928;27.662;2024-03-02T00:10:19;30.88;;;13.75;;
56911;SDS011;42800;53.928;27.662;2024-03-02T00:12:48;35.55;;;12.63;;
56911;SDS011;42800;53.928;27.662;2024-03-02T00:15:22;33.35;;;14.23;;
56911;SDS011;42800;53.928;27.662;2024-03-02T00:18:05;28.45;;;13.93;;
56911;SDS011;42800;53.928;27.662;2024-03-02T00:20:32;32.55;;;14.90;;
56911;SDS011;42800;53.928;27.662;2024-03-02T00:23:00;29.55;;;13.90;;
56911;SDS011;42800;53.928;27.662;2024-03-02T00:25:34;34.92;;;15.02;;
56911;SDS011;42800;53.928;27.662;2024-03-02T00:28:02;31.50;;;15.07;;
56911;SDS011;42800;53.928;27.662;2024-03-02T00:30:43;30.60;;;14.05;;
56911;SDS011;42800;53.928;27.662;2024-03-02T00:33:17;30.45;;;14.63;;
56911;SDS011;42800;53.928;27.662;2024-03-02T00:35:45;35.72;;;14.38;;
56911;SDS011;42800;53.928;27.662;2024-03-02T00:38:11;39.47;;;14.55;;
56911;SDS011;42800;53.928;27.662;2024-03-02T00:40:38;32.70;;;14.68;;
56911;SDS011;42800;53.928;27.662;2024-03-02T00:43:04;29.80;;;14.40;;
56911;SDS011;42800;53.928;27.662;2024-03-02T00:45:30;28.25;;;12.90;;
56911;SDS011;42800;53.928;27.662;2024-03-02T00:47:56;28.75;;;14.27;;
56911;SDS011;42800;53.928;27.662;2024-03-02T00:50:22;26.40;;;13.43;;
56911;SDS011;42800;53.928;27.662;2024-03-02T00:52:49;26.85;;;12.32;;
56911;SDS011;42800;53.928;27.662;2024-03-02T00:55:15;33.63;;;14.07;;
56911;SDS011;42800;53.928;27.662;2024-03-02T00:57:41;32.05;;;14.57;;
56911;SDS011;42800;53.928;27.662;2024-03-02T01:00:09;29.52;;;14.68;;
56911;SDS011;42800;53.928;27.662;2024-03-02T01:02:40;30.02;;;13.77;;
56911;SDS011;42800;53.928;27.662;2024-03-02T01:05:07;20.42;;;11.23;;
56911;SDS011;42800;53.928;27.662;2024-03-02T01:07:33;28.13;;;16.05;;
56911;SDS011;42800;53.928;27.662;2024-03-02T01:10:00;36.33;;;14.95;;
56911;SDS011;42800;53.928;27.662;2024-03-02T01:12:26;31.38;;;14.60;;
56911;SDS011;42800;53.928;27.662;2024-03-02T01:14:52;31.35;;;14.07;;
56911;SDS011;42800;53.928;27.662;2024-03-02T01:17:18;31.67;;;15.52;;
56911;SDS011;42800;53.928;27.662;2024-03-02T01:19:44;26.88;;;13.75;;
56911;SDS011;42800;53.928;27.662;2024-03-02T01:22:10;30.75;;;14.23;;
56911;SDS011;42800;53.928;27.662;2024-03-02T01:24:35;30.77;;;13.95;;
56911;SDS011;42800;53.928;27.662;2024-03-02T01:27:02;26.63;;;12.13;;
56911;SDS011;42800;53.928;27.662;2024-03-02T01:29:28;28.92;;;14.13;;
56911;SDS011;42800;53.928;27.662;2024-03-02T01:31:54;22.08;;;12.23;;
56911;SDS011;42800;53.928;27.662;2024-03-02T01:34:20;34.38;;;15.68;;
56911;SDS011;42800;53.928;27.662;2024-03-02T01:36:46;39.05;;;16.55;;
56911;SDS011;42800;53.928;27.662;2024-03-02T01:39:12;30.20;;;16.02;;
56911;SDS011;42800;53.928;27.662;2024-03-02T01:41:37;30.15;;;15.45;;
56911;SDS011;42800;53.928;27.662;2024-03-02T01:44:04;26.38;;;13.38;;
56911;SDS011;42800;53.928;27.662;2024-03-02T01:46:30;27.27;;;14.13;;
56911;SDS011;42800;53.928;27.662;2024-03-02T01:48:56;40.63;;;15.10;;
56911;SDS011;42800;53.928;27.662;2024-03-02T01:51:22;33.80;;;15.02;;
56911;SDS011;42800;53.928;27.662;2024-03-02T01:53:48;32.78;;;15.23;;
56911;SDS011;42800;53.928;27.662;2024-03-02T01:56:14;30.77;;;15.48;;
56911;SDS011;42800;53.928;27.662;2024-03-02T01:58:40;33.20;;;15.10;;
56911;SDS011;42800;53.928;27.662;2024-03-02T02:01:06;36.10;;;14.95;;
56911;SDS011;42800;53.928;27.662;2024-03-02T02:03:32;30.42;;;15.48;;
56911;SDS011;42800;53.928;27.662;2024-03-02T02:05:58;27.20;;;13.65;;
56911;SDS011;42800;53.928;27.662;2024-03-02T02:08:24;26.23;;;13.00;;
56911;SDS011;42800;53.928;27.662;2024-03-02T02:10:50;29.25;;;15.48;;
56911;SDS011;42800;53.928;27.662;2024-03-02T02:13:16;29.60;;;15.55;;
56911;SDS011;42800;53.928;27.662;2024-03-02T02:15:42;30.85;;;13.63;;
56911;SDS011;42800;53.928;27.662;2024-03-02T02:18:08;22.83;;;11.10;;
56911;SDS011;42800;53.928;27.662;2024-03-02T02:20:34;30.90;;;14.88;;
56911;SDS011;42800;53.928;27.662;2024-03-02T02:23:01;29.05;;;11.95;;
56911;SDS011;42800;53.928;27.662;2024-03-02T02:25:28;29.38;;;13.50;;
56911;SDS011;42800;53.928;27.662;2024-03-02T02:27:55;31.05;;;16.42;;
56911;SDS011;42800;53.928;27.662;2024-03-02T02:30:21;33.00;;;16.50;;
56911;SDS011;42800;53.928;27.662;2024-03-02T02:32:49;28.40;;;12.52;;
56911;SDS011;42800;53.928;27.662;2024-03-02T02:35:15;35.92;;;13.73;;
56911;SDS011;42800;53.928;27.662;2024-03-02T02:37:41;19.88;;;11.02;;
56911;SDS011;42800;53.928;27.662;2024-03-02T02:40:09;31.13;;;13.52;;
56911;SDS011;42800;53.928;27.662;2024-03-02T02:42:36;30.05;;;15.50;;
56911;SDS011;42800;53.928;27.662;2024-03-02T02:45:02;29.40;;;14.15;;
56911;SDS011;42800;53.928;27.662;2024-03-02T02:47:28;23.35;;;13.57;;
56911;SDS011;42800;53.928;27.662;2024-03-02T02:49:54;29.70;;;14.13;;
56911;SDS011;42800;53.928;27.662;2024-03-02T02:52:20;27.85;;;14.90;;
56911;SDS011;42800;53.928;27.662;2024-03-02T02:54:46;29.77;;;14.68;;
56911;SDS011;42800;53.928;27.662;2024-03-02T02:57:13;32.85;;;14.32;;
56911;SDS011;42800;53.928;27.662;2024-03-02T02:59:39;28.50;;;12.63;;
56911;SDS011;42800;53.928;27.662;2024-03-02T03:02:05;28.70;;;14.45;;
56911;SDS011;42800;53.928;27.662;2024-03-02T03:04:31;25.90;;;13.95;;
56911;SDS011;42800;53.928;27.662;2024-03-02T03:06:57;27.40;;;13.23;;
56911;SDS011;42800;53.928;27.662;2024-03-02T03:09:23;25.73;;;14.38;;
56911;SDS011;42800;53.928;27.662;2024-03-02T03:11:49;24.83;;;12.80;;
56911;SDS011;42800;53.928;27.662;2024-03-02T03:14:16;27.50;;;13.90;;
56911;SDS011;42800;53.928;27.662;2024-03-02T03:16:42;27.20;;;13.50;;
56911;SDS011;42800;53.928;27.662;2024-03-02T03:19:08;34.15;;;14.65;;
56911;SDS011;42800;53.928;27.662;2024-03-02T03:21:34;30.13;;;14.00;;
56911;SDS011;42800;53.928;27.662;2024-03-02T03:23:59;26.17;;;13.77;;
56911;SDS011;42800;53.928;27.662;2024-03-02T03:26:25;37.22;;;13.35;;
56911;SDS011;42800;53.928;27.662;2024-03-02T03:28:51;27.08;;;13.95;;
56911;SDS011;42800;53.928;27.662;2024-03-02T03:31:18;21.27;;;12.70;;
56911;SDS011;42800;53.928;27.662;2024-03-02T03:33:44;31.60;;;15.65;;
56911;SDS011;42800;53.928;27.662;2024-03-02T03:36:10;25.20;;;13.32;;
56911;SDS011;42800;53.928;27.662;2024-03-02T03:38:35;21.42;;;11.98;;
56911;SDS011;42800;53.928;27.662;2024-03-02T03:41:01;27.38;;;13.25;;
56911;SDS011;42800;53.928;27.662;2024-03-02T03:43:27;26.95;;;12.57;;
56911;SDS011;42800;53.928;27.662;2024-03-02T03:45:54;24.45;;;12.88;;
56911;SDS011;42800;53.928;27.662;2024-03-02T03:48:21;24.05;;;12.27;;
56911;SDS011;42800;53.928;27.662;2024-03-02T03:50:46;31.27;;;14.32;;
56911;SDS011;42800;53.928;27.662;2024-03-02T03:53:12;29.52;;;13.55;;
56911;SDS011;42800;53.928;27.662;2024-03-02T03:55:40;22.63;;;12.77;;
56911;SDS011;42800;53.928;27.662;2024-03-02T03:58:05;27.63;;;12.45;;
56911;SDS011;42800;53.928;27.662;2024-03-02T04:00:31;29.52;;;13.50;;
56911;SDS011;42800;53.928;27.662;2024-03-02T04:02:57;24.08;;;12.35;;
56911;SDS011;42800;53.928;27.662;2024-03-02T04:05:24;26.52;;;12.73;;
56911;SDS011;42800;53.928;27.662;2024-03-02T04:07:50;25.35;;;12.25;;
56911;SDS011;42800;53.928;27.662;2024-03-02T04:10:16;25.42;;;12.85;;
56911;SDS011;42800;53.928;27.662;2024-03-02T04:12:42;29.77;;;13.85;;
56911;SDS011;42800;53.928;27.662;2024-03-02T04:15:08;26.10;;;12.45;;
56911;SDS011;42800;53.928;27.662;2024-03-02T04:17:34;27.02;;;12.10;;
56911;SDS011;42800;53.928;27.662;2024-03-02T04:20:01;23.92;;;11.93;;
56911;SDS011;42800;53.928;27.662;2024-03-02T04:22:30;24.63;;;12.38;;
56911;SDS011;42800;53.928;27.662;2024-03-02T04:24:58;23.67;;;12.85;;
56911;SDS011;42800;53.928;27.662;2024-03-02T04:27:24;27.02;;;14.00;;
56911;SDS011;42800;53.928;27.662;2024-03-02T04:29:51;22.58;;;11.45;;
56911;SDS011;42800;53.928;27.662;2024-03-02T04:32:17;27.60;;;12.30;;
56911;SDS011;42800;53.928;27.662;2024-03-02T04:34:44;28.80;;;13.27;;
56911;SDS011;42800;53.928;27.662;2024-03-02T04:37:10;25.17;;;12.20;;
56911;SDS011;42800;53.928;27.662;2024-03-02T04:39:38;26.75;;;12.77;;
56911;SDS011;42800;53.928;27.662;2024-03-02T04:42:04;28.17;;;13.30;;
56911;SDS011;42800;53.928;27.662;2024-03-02T04:44:30;26.80;;;11.55;;
56911;SDS011;42800;53.928;27.662;2024-03-02T04:46:56;21.55;;;11.25;;
56911;SDS011;42800;53.928;27.662;2024-03-02T04:49:22;35.45;;;12.82;;
56911;SDS011;42800;53.928;27.662;2024-03-02T04:51:48;24.38;;;13.77;;
56911;SDS011;42800;53.928;27.662;2024-03-02T04:54:14;24.95;;;12.93;;
56911;SDS011;42800;53.928;27.662;2024-03-02T04:56:41;25.73;;;12.70;;
56911;SDS011;42800;53.928;27.662;2024-03-02T04:59:09;26.38;;;13.23;;
56911;SDS011;42800;53.928;27.662;2024-03-02T05:01:35;24.38;;;12.48;;
56911;SDS011;42800;53.928;27.662;2024-03-02T05:04:01;22.48;;;11.35;;
56911;SDS011;42800;53.928;27.662;2024-03-02T05:06:27;25.48;;;13.23;;
56911;SDS011;42800;53.928;27.662;2024-03-02T05:08:53;29.42;;;11.57;;
56911;SDS011;42800;53.928;27.662;2024-03-02T05:11:19;27.75;;;12.93;;
56911;SDS011;42800;53.928;27.662;2024-03-02T05:14:11;28.30;;;11.30;;
56911;SDS011;42800;53.928;27.662;2024-03-02T05:16:37;39.88;;;13.68;;
56911;SDS011;42800;53.928;27.662;2024-03-02T05:19:03;26.13;;;13.30;;
56911;SDS011;42800;53.928;27.662;2024-03-02T05:21:31;25.70;;;12.27;;
56911;SDS011;42800;53.928;27.662;2024-03-02T05:23:57;29.25;;;11.77;;
56911;SDS011;42800;53.928;27.662;2024-03-02T05:26:23;22.95;;;11.57;;
56911;SDS011;42800;53.928;27.662;2024-03-02T05:28:49;28.98;;;13.10;;
56911;SDS011;42800;53.928;27.662;2024-03-02T05:31:15;33.03;;;14.30;;
56911;SDS011;42800;53.928;27.662;2024-03-02T05:33:41;22.10;;;10.90;;
56911;SDS011;42800;53.928;27.662;2024-03-02T05:36:08;28.52;;;13.20;;
56911;SDS011;42800;53.928;27.662;2024-03-02T05:38:34;31.85;;;12.25;;
56911;SDS011;42800;53.928;27.662;2024-03-02T05:41:00;23.00;;;12.70;;
56911;SDS011;42800;53.928;27.662;2024-03-02T05:43:26;23.60;;;11.32;;
56911;SDS011;42800;53.928;27.662;2024-03-02T05:45:52;22.98;;;11.98;;
56911;SDS011;42800;53.928;27.662;2024-03-02T05:48:19;28.13;;;12.18;;
56911;SDS011;42800;53.928;27.662;2024-03-02T05:50:45;27.33;;;11.73;;
56911;SDS011;42800;53.928;27.662;2024-03-02T05:53:11;28.88;;;10.32;;
56911;SDS011;42800;53.928;27.662;2024-03-02T05:55:37;33.55;;;11.88;;
56911;SDS011;42800;53.928;27.662;2024-03-02T05:58:03;11.55;;;7.60;;
56911;SDS011;42800;53.928;27.662;2024-03-02T06:00:45;21.98;;;11.73;;
56911;SDS011;42800;53.928;27.662;2024-03-02T06:03:11;18.52;;;10.82;;
56911;SDS011;42800;53.928;27.662;2024-03-02T06:05:38;19.17;;;12.55;;
56911;SDS011;42800;53.928;27.662;2024-03-02T06:08:04;24.25;;;12.10;;
56911;SDS011;42800;53.928;27.662;2024-03-02T06:10:30;23.65;;;9.45;;
56911;SDS011;42800;53.928;27.662;2024-03-02T06:12:56;21.10;;;10.55;;
56911;SDS011;42800;53.928;27.662;2024-03-02T06:15:24;17.60;;;10.00;;
56911;SDS011;42800;53.928;27.662;2024-03-02T06:17:49;18.55;;;8.88;;
56911;SDS011;42800;53.928;27.662;2024-03-02T06:20:15;23.58;;;9.65;;
56911;SDS011;42800;53.928;27.662;2024-03-02T06:22:42;15.25;;;9.23;;
56911;SDS011;42800;53.928;27.662;2024-03-02T06:25:08;12.63;;;8.20;;
56911;SDS011;42800;53.928;27.662;2024-03-02T06:27:34;19.45;;;9.85;;
56911;SDS011;42800;53.928;27.662;2024-03-02T06:30:00;23.80;;;8.65;;
56911;SDS011;42800;53.928;27.662;2024-03-02T06:32:25;18.70;;;9.90;;
56911;SDS011;42800;53.928;27.662;2024-03-02T06:34:51;16.40;;;8.70;;
56911;SDS011;42800;53.928;27.662;2024-03-02T06:37:18;17.08;;;9.05;;
56911;SDS011;42800;53.928;27.662;2024-03-02T06:39:44;17.73;;;8.80;;
56911;SDS011;42800;53.928;27.662;2024-03-02T06:42:10;18.10;;;9.68;;
56911;SDS011;42800;53.928;27.662;2024-03-02T06:44:36;20.08;;;10.18;;
56911;SDS011;42800;53.928;27.662;2024-03-02T06:47:02;21.67;;;8.82;;
56911;SDS011;42800;53.928;27.662;2024-03-02T06:49:29;17.70;;;8.98;;
56911;SDS011;42800;53.928;27.662;2024-03-02T06:51:55;23.55;;;9.65;;
56911;SDS011;42800;53.928;27.662;2024-03-02T06:54:21;18.70;;;9.38;;
56911;SDS011;42800;53.928;27.662;2024-03-02T06:56:47;21.77;;;9.45;;
56911;SDS011;42800;53.928;27.662;2024-03-02T06:59:13;15.02;;;8.05;;
56911;SDS011;42800;53.928;27.662;2024-03-02T07:01:39;18.23;;;9.38;;
56911;SDS011;42800;53.928;27.662;2024-03-02T07:04:05;22.15;;;9.85;;
56911;SDS011;42800;53.928;27.662;2024-03-02T07:06:31;15.90;;;9.05;;
56911;SDS011;42800;53.928;27.662;2024-03-02T07:08:57;18.80;;;9.77;;
56911;SDS011;42800;53.928;27.662;2024-03-02T07:11:23;21.75;;;9.90;;
56911;SDS011;42800;53.928;27.662;2024-03-02T07:13:50;16.73;;;9.70;;
56911;SDS011;42800;53.928;27.662;2024-03-02T07:16:16;16.75;;;8.60;;
56911;SDS011;42800;53.928;27.662;2024-03-02T07:18:53;17.95;;;9.50;;
56911;SDS011;42800;53.928;27.662;2024-03-02T07:21:20;21.48;;;10.10;;
56911;SDS011;42800;53.928;27.662;2024-03-02T07:23:47;17.50;;;10.38;;
56911;SDS011;42800;53.928;27.662;2024-03-02T07:26:13;20.52;;;10.57;;
56911;SDS011;42800;53.928;27.662;2024-03-02T07:28:41;19.77;;;9.38;;
56911;SDS011;42800;53.928;27.662;2024-03-02T07:31:10;21.92;;;9.82;;
56911;SDS011;42800;53.928;27.662;2024-03-02T07:33:36;22.05;;;9.88;;
56911;SDS011;42800;53.928;27.662;2024-03-02T07:36:02;18.33;;;9.23;;
56911;SDS011;42800;53.928;27.662;2024-03-02T07:38:29;20.40;;;10.60;;
56911;SDS011;42800;53.928;27.662;2024-03-02T07:40:55;20.85;;;9.48;;
56911;SDS011;42800;53.928;27.662;2024-03-02T07:43:21;24.42;;;10.55;;
56911;SDS011;42800;53.928;27.662;2024-03-02T07:45:47;21.15;;;10.77;;
56911;SDS011;42800;53.928;27.662;2024-03-02T07:48:14;27.75;;;10.88;;
56911;SDS011;42800;53.928;27.662;2024-03-02T07:50:40;22.33;;;9.68;;
56911;SDS011;42800;53.928;27.662;2024-03-02T07:53:08;20.90;;;10.32;;
56911;SDS011;42800;53.928;27.662;2024-03-02T07:55:34;24.58;;;10.85;;
56911;SDS011;42800;53.928;27.662;2024-03-02T07:58:00;19.08;;;10.90;;
56911;SDS011;42800;53.928;27.662;2024-03-02T08:00:27;21.92;;;10.98;;
56911;SDS011;42800;53.928;27.662;2024-03-02T08:02:53;40.42;;;10.63;;
56911;SDS011;42800;53.928;27.662;2024-03-02T08:05:20;23.08;;;9.65;;
56911;SDS011;42800;53.928;27.662;2024-03-02T08:07:46;24.20;;;11.25;;
56911;SDS011;42800;53.928;27.662;2024-03-02T08:10:13;16.67;;;9.23;;
56911;SDS011;42800;53.928;27.662;2024-03-02T08:12:39;20.08;;;10.80;;
56911;SDS011;42800;53.928;27.662;2024-03-02T08:15:05;20.38;;;10.30;;
56911;SDS011;42800;53.928;27.662;2024-03-02T08:17:32;20.80;;;10.55;;
56911;SDS011;42800;53.928;27.662;2024-03-02T08:19:58;16.27;;;9.70;;
56911;SDS011;42800;53.928;27.662;2024-03-02T08:22:24;17.83;;;9.02;;
56911;SDS011;42800;53.928;27.662;2024-03-02T08:24:50;20.13;;;9.70;;
56911;SDS011;42800;53.928;27.662;2024-03-02T08:27:16;19.65;;;9.98;;
56911;SDS011;42800;53.928;27.662;2024-03-02T08:29:43;17.58;;;10.05;;
56911;SDS011;42800;53.928;27.662;2024-03-02T08:32:09;19.05;;;9.95;;
56911;SDS011;42800;53.928;27.662;2024-03-02T08:34:35;15.43;;;9.68;;
56911;SDS011;42800;53.928;27.662;2024-03-02T08:37:01;22.23;;;10.45;;
56911;SDS011;42800;53.928;27.662;2024-03-02T08:39:28;17.25;;;9.55;;
56911;SDS011;42800;53.928;27.662;2024-03-02T08:41:54;26.02;;;10.43;;
56911;SDS011;42800;53.928;27.662;2024-03-02T08:44:20;22.83;;;9.57;;
56911;SDS011;42800;53.928;27.662;2024-03-02T08:46:46;23.88;;;9.90;;
56911;SDS011;42800;53.928;27.662;2024-03-02T08:49:12;16.98;;;8.27;;
56911;SDS011;42800;53.928;27.662;2024-03-02T08:51:39;19.13;;;9.82;;
56911;SDS011;42800;53.928;27.662;2024-03-02T08:54:05;22.08;;;11.05;;
56911;SDS011;42800;53.928;27.662;2024-03-02T08:56:31;20.08;;;10.60;;
56911;SDS011;42800;53.928;27.662;2024-03-02T08:58:57;23.48;;;10.98;;
56911;SDS011;42800;53.928;27.662;2024-03-02T09:01:23;20.08;;;10.50;;
56911;SDS011;42800;53.928;27.662;2024-03-02T09:03:49;20.83;;;8.80;;
56911;SDS011;42800;53.928;27.662;2024-03-02T09:06:15;18.00;;;9.95;;
56911;SDS011;42800;53.928;27.662;2024-03-02T09:08:42;19.42;;;10.70;;
56911;SDS011;42800;53.928;27.662;2024-03-02T09:11:09;20.63;;;9.93;;
56911;SDS011;42800;53.928;27.662;2024-03-02T09:13:36;18.77;;;10.38;;
56911;SDS011;42800;53.928;27.662;2024-03-02T09:16:03;17.90;;;9.65;;
56911;SDS011;42800;53.928;27.662;2024-03-02T09:18:30;29.67;;;10.27;;
56911;SDS011;42800;53.928;27.662;2024-03-02T09:20:56;21.50;;;10.00;;
56911;SDS011;42800;53.928;27.662;2024-03-02T09:23:21;21.45;;;10.02;;
56911;SDS011;42800;53.928;27.662;2024-03-02T09:25:47;19.73;;;11.23;;
56911;SDS011;42800;53.928;27.662;2024-03-02T09:28:15;21.45;;;9.73;;
56911;SDS011;42800;53.928;27.662;2024-03-02T09:30:42;22.67;;;9.95;;
56911;SDS011;42800;53.928;27.662;2024-03-02T09:33:08;18.00;;;10.45;;
56911;SDS011;42800;53.928;27.662;2024-03-02T09:35:33;19.33;;;10.00;;
56911;SDS011;42800;53.928;27.662;2024-03-02T09:37:59;19.08;;;10.10;;
56911;SDS011;42800;53.928;27.662;2024-03-02T09:40:25;21.50;;;10.30;;
56911;SDS011;42800;53.928;27.662;2024-03-02T09:42:51;17.27;;;9.27;;
56911;SDS011;42800;53.928;27.662;2024-03-02T09:45:18;25.52;;;9.45;;
56911;SDS011;42800;53.928;27.662;2024-03-02T09:47:49;19.92;;;9.65;;
56911;SDS011;42800;53.928;27.662;2024-03-02T09:50:15;19.33;;;9.52;;
56911;SDS011;42800;53.928;27.662;2024-03-02T09:52:41;13.95;;;8.75;;
56911;SDS011;42800;53.928;27.662;2024-03-02T09:55:08;17.25;;;8.40;;
56911;SDS011;42800;53.928;27.662;2024-03-02T09:57:34;18.77;;;8.63;;
56911;SDS011;42800;53.928;27.662;2024-03-02T10:00:00;19.38;;;9.88;;
56911;SDS011;42800;53.928;27.662;2024-03-02T10:02:26;18.33;;;9.82;;
56911;SDS011;42800;53.928;27.662;2024-03-02T10:04:52;18.23;;;10.55;;
56911;SDS011;42800;53.928;27.662;2024-03-02T10:07:18;20.73;;;9.70;;
56911;SDS011;42800;53.928;27.662;2024-03-02T10:09:45;18.33;;;9.65;;
56911;SDS011;42800;53.928;27.662;2024-03-02T10:12:12;20.67;;;10.13;;
56911;SDS011;42800;53.928;27.662;2024-03-02T10:14:39;14.45;;;9.05;;
56911;SDS011;42800;53.928;27.662;2024-03-02T10:17:06;15.25;;;8.93;;
56911;SDS011;42800;53.928;27.662;2024-03-02T10:19:32;15.80;;;8.68;;
56911;SDS011;42800;53.928;27.662;2024-03-02T10:22:00;14.27;;;7.10;;
56911;SDS011;42800;53.928;27.662;2024-03-02T10:24:28;15.82;;;8.60;;
56911;SDS011;42800;53.928;27.662;2024-03-02T10:27:01;16.55;;;8.77;;
56911;SDS011;42800;53.928;27.662;2024-03-02T10:29:29;17.48;;;8.93;;
56911;SDS011;42800;53.928;27.662;2024-03-02T10:31:55;19.45;;;9.32;;
56911;SDS011;42800;53.928;27.662;2024-03-02T10:34:21;17.85;;;8.73;;
56911;SDS011;42800;53.928;27.662;2024-03-02T10:36:47;19.98;;;8.88;;
56911;SDS011;42800;53.928;27.662;2024-03-02T10:39:14;18.15;;;8.27;;
56911;SDS011;42800;53.928;27.662;2024-03-02T10:41:40;17.73;;;7.75;;
56911;SDS011;42800;53.928;27.662;2024-03-02T10:44:06;13.07;;;7.45;;
56911;SDS011;42800;53.928;27.662;2024-03-02T10:46:33;16.42;;;8.15;;
56911;SDS011;42800;53.928;27.662;2024-03-02T10:49:01;18.63;;;8.90;;
56911;SDS011;42800;53.928;27.662;2024-03-02T10:51:31;15.30;;;8.57;;
56911;SDS011;42800;53.928;27.662;2024-03-02T10:53:58;23.20;;;9.35;;
56911;SDS011;42800;53.928;27.662;2024-03-02T10:56:28;19.27;;;9.57;;
56911;SDS011;42800;53.928;27.662;2024-03-02T10:58:55;19.23;;;8.88;;
56911;SDS011;42800;53.928;27.662;2024-03-02T11:01:28;18.70;;;8.38;;
56911;SDS011;42800;53.928;27.662;2024-03-02T11:03:55;18.40;;;8.65;;
56911;SDS011;42800;53.928;27.662;2024-03-02T11:06:23;18.17;;;8.02;;
56911;SDS011;42800;53.928;27.662;2024-03-02T11:08:52;17.63;;;8.80;;
56911;SDS011;42800;53.928;27.662;2024-03-02T11:11:25;18.25;;;8.68;;
56911;SDS011;42800;53.928;27.662;2024-03-02T11:13:56;19.38;;;8.43;;
56911;SDS011;42800;53.928;27.662;2024-03-02T11:16:27;16.33;;;8.73;;
56911;SDS011;42800;53.928;27.662;2024-03-02T11:19:00;21.27;;;8.65;;
56911;SDS011;42800;53.928;27.662;2024-03-02T11:21:28;19.00;;;8.93;;
56911;SDS011;42800;53.928;27.662;2024-03-02T11:23:54;16.25;;;8.30;;
56911;SDS011;42800;53.928;27.662;2024-03-02T11:26:20;15.75;;;8.32;;
56911;SDS011;42800;53.928;27.662;2024-03-02T11:28:49;15.98;;;8.00;;
56911;SDS011;42800;53.928;27.662;2024-03-02T11:31:15;17.70;;;9.88;;
56911;SDS011;42800;53.928;27.662;2024-03-02T11:33:41;20.17;;;8.68;;
56911;SDS011;42800;53.928;27.662;2024-03-02T11:36:08;14.45;;;8.23;;
56911;SDS011;42800;53.928;27.662;2024-03-02T11:38:34;19.92;;;7.57;;
56911;SDS011;42800;53.928;27.662;2024-03-02T11:41:01;10.23;;;5.90;;
56911;SDS011;42800;53.928;27.662;2024-03-02T11:43:28;19.35;;;8.10;;
56911;SDS011;42800;53.928;27.662;2024-03-02T11:45:58;17.33;;;7.35;;
56911;SDS011;42800;53.928;27.662;2024-03-02T11:48:25;15.38;;;7.18;;
56911;SDS011;42800;53.928;27.662;2024-03-02T11:50:51;14.77;;;7.53;;
56911;SDS011;42800;53.928;27.662;2024-03-02T11:53:18;28.98;;;7.35;;
56911;SDS011;42800;53.928;27.662;2024-03-02T11:55:45;19.27;;;8.00;;
56911;SDS011;42800;53.928;27.662;2024-03-02T11:58:11;14.20;;;6.35;;
56911;SDS011;42800;53.928;27.662;2024-03-02T12:00:40;13.85;;;7.90;;
56911;SDS011;42800;53.928;27.662;2024-03-02T12:03:07;15.55;;;7.68;;
56911;SDS011;42800;53.928;27.662;2024-03-02T12:05:35;12.85;;;6.97;;
56911;SDS011;42800;53.928;27.662;2024-03-02T12:08:02;23.90;;;7.95;;
56911;SDS011;42800;53.928;27.662;2024-03-02T12:10:30;15.45;;;7.47;;
56911;SDS011;42800;53.928;27.662;2024-03-02T12:12:56;20.90;;;8.23;;
56911;SDS011;42800;53.928;27.662;2024-03-02T12:15:23;14.38;;;7.55;;
56911;SDS011;42800;53.928;27.662;2024-03-02T12:17:52;15.68;;;7.30;;
56911;SDS011;42800;53.928;27.662;2024-03-02T12:20:19;16.25;;;8.00;;
56911;SDS011;42800;53.928;27.662;2024-03-02T12:22:45;13.27;;;7.57;;
56911;SDS011;42800;53.928;27.662;2024-03-02T12:25:11;15.48;;;7.10;;
56911;SDS011;42800;53.928;27.662;2024-03-02T12:27:37;12.82;;;7.38;;
56911;SDS011;42800;53.928;27.662;2024-03-02T12:30:05;15.45;;;8.35;;
56911;SDS011;42800;53.928;27.662;2024-03-02T12:32:33;18.38;;;7.85;;
56911;SDS011;42800;53.928;27.662;2024-03-02T12:34:59;18.52;;;8.13;;
56911;SDS011;42800;53.928;27.662;2024-03-02T12:37:26;21.75;;;8.95;;
56911;SDS011;42800;53.928;27.662;2024-03-02T12:39:53;21.48;;;8.23;;
56911;SDS011;42800;53.928;27.662;2024-03-02T12:42:19;16.92;;;7.60;;
56911;SDS011;42800;53.928;27.662;2024-03-02T12:44:45;24.65;;;9.27;;
56911;SDS011;42800;53.928;27.662;2024-03-02T12:47:11;21.02;;;8.50;;
56911;SDS011;42800;53.928;27.662;2024-03-02T12:49:39;14.63;;;8.48;;
56911;SDS011;42800;53.928;27.662;2024-03-02T12:52:05;15.75;;;8.68;;
56911;SDS011;42800;53.928;27.662;2024-03-02T12:54:32;16.10;;;9.45;;
56911;SDS011;42800;53.928;27.662;2024-03-02T12:56:59;17.08;;;8.80;;
56911;SDS011;42800;53.928;27.662;2024-03-02T12:59:25;14.05;;;7.43;;
56911;SDS011;42800;53.928;27.662;2024-03-02T13:01:52;22.55;;;9.02;;
56911;SDS011;42800;53.928;27.662;2024-03-02T13:04:21;17.48;;;9.00;;
56911;SDS011;42800;53.928;27.662;2024-03-02T13:06:48;20.42;;;7.97;;
56911;SDS011;42800;53.928;27.662;2024-03-02T13:09:14;16.00;;;7.88;;
56911;SDS011;42800;53.928;27.662;2024-03-02T13:11:42;15.30;;;7.60;;
56911;SDS011;42800;53.928;27.662;2024-03-02T13:14:10;20.17;;;8.48;;
56911;SDS011;42800;53.928;27.662;2024-03-02T13:16:38;17.23;;;8.13;;
56911;SDS011;42800;53.928;27.662;2024-03-02T13:19:04;14.68;;;7.38;;
56911;SDS011;42800;53.928;27.662;2024-03-02T13:21:33;13.93;;;7.55;;
56911;SDS011;42800;53.928;27.662;2024-03-02T13:23:59;16.60;;;7.10;;
56911;SDS011;42800;53.928;27.662;2024-03-02T13:26:26;9.50;;;4.10;;
56911;SDS011;42800;53.928;27.662;2024-03-02T13:28:53;11.43;;;6.50;;
56911;SDS011;42800;53.928;27.662;2024-03-02T13:31:19;13.57;;;7.30;;
56911;SDS011;42800;53.928;27.662;2024-03-02T13:33:46;16.70;;;6.82;;
56911;SDS011;42800;53.928;27.662;2024-03-02T13:36:12;15.40;;;7.60;;
56911;SDS011;42800;53.928;27.662;2024-03-02T13:38:38;15.48;;;7.53;;
56911;SDS011;42800;53.928;27.662;2024-03-02T13:41:03;19.50;;;8.20;;
56911;SDS011;42800;53.928;27.662;2024-03-02T13:43:30;16.92;;;7.65;;
56911;SDS011;42800;53.928;27.662;2024-03-02T13:45:57;13.05;;;5.95;;
56911;SDS011;42800;53.928;27.662;2024-03-02T13:48:24;14.60;;;7.28;;
56911;SDS011;42800;53.928;27.662;2024-03-02T13:50:51;18.83;;;6.60;;
56911;SDS011;42800;53.928;27.662;2024-03-02T13:53:17;22.45;;;7.65;;
56911;SDS011;42800;53.928;27.662;2024-03-02T13:55:43;16.98;;;6.68;;
56911;SDS011;42800;53.928;27.662;2024-03-02T13:58:09;17.30;;;8.02;;
56911;SDS011;42800;53.928;27.662;2024-03-02T14:00:36;16.25;;;7.57;;
56911;SDS011;42800;53.928;27.662;2024-03-02T14:03:03;13.90;;;7.13;;
56911;SDS011;42800;53.928;27.662;2024-03-02T14:05:31;15.18;;;7.55;;
56911;SDS011;42800;53.928;27.662;2024-03-02T14:07:57;17.40;;;7.50;;
56911;SDS011;42800;53.928;27.662;2024-03-02T14:10:24;16.05;;;7.05;;